Time,TemperatureF,DewpointF,PressureIn,WindDirection,WindDirectionDegrees,WindSpeedMPH,WindSpeedGustMPH,Humidity,HourlyPrecipIn,Conditions,Clouds,dailyrainin,SoftwareType,DateUTC
2013-09-29 00:13:00,47.0,43.0,29.82,WSW,252,4.0,5.0,85,0.00,,,1.10,,2013-09-29 05:13:00,
2013-09-29 00:22:00,47.0,43.0,29.82,SW,234,4.0,5.0,86,0.00,,,1.10,,2013-09-29 05:22:00,
2013-09-29 00:52:00,47.0,42.0,29.82,WSW,240,4.0,6.0,84,0.00,,,1.10,,2013-09-29 05:52:00,
2013-09-29 01:12:00,48.0,43.0,29.82,SW,232,4.0,7.0,84,0.00,,,1.10,,2013-09-29 06:12:00,
2013-09-29 01:22:00,47.0,43.0,29.82,WSW,238,4.0,7.0,85,0.00,,,1.10,,2013-09-29 06:22:00,
2013-09-29 01:42:00,47.0,43.0,29.82,WSW,253,4.0,6.0,85,0.00,,,1.10,,2013-09-29 06:42:00,
2013-09-29 01:52:00,47.0,42.0,29.82,WSW,243,4.0,7.0,84,0.00,,,1.10,,2013-09-29 06:52:00,
2013-09-29 02:11:00,47.0,43.0,29.82,SW,235,5.0,7.0,85,0.00,,,1.10,,2013-09-29 07:11:00,
2013-09-29 02:22:00,46.0,42.0,29.82,SW,235,2.0,5.0,86,0.00,,,0.96,,2013-09-29 07:22:00,
2013-09-29 02:43:00,46.0,42.0,29.82,SW,236,3.0,5.0,87,0.00,,,0.96,,2013-09-29 07:43:00,
2013-09-29 02:52:00,46.0,43.0,29.82,SW,229,3.0,5.0,88,0.00,,,0.96,,2013-09-29 07:52:00,
2013-09-29 03:12:00,46.0,42.0,29.82,SW,226,3.0,5.0,87,0.00,,,0.96,,2013-09-29 08:12:00,
2013-09-29 03:22:00,45.0,42.0,29.82,SW,235,4.0,5.0,88,0.00,,,0.85,,2013-09-29 08:22:00,
2013-09-29 03:42:00,45.0,42.0,29.82,West,259,5.0,7.0,88,0.00,,,0.85,,2013-09-29 08:42:00,
2013-09-29 03:52:00,45.0,42.0,29.82,SW,217,5.0,7.0,88,0.00,,,0.85,,2013-09-29 08:52:00,
2013-09-29 04:11:00,46.0,43.0,29.82,West,259,5.0,8.0,88,0.00,,,0.85,,2013-09-29 09:11:00,
2013-09-29 04:22:00,46.0,43.0,29.82,WSW,242,4.0,6.0,88,0.00,,,0.68,,2013-09-29 09:22:00,
2013-09-29 04:43:00,45.0,42.0,29.82,WSW,250,4.0,6.0,88,0.00,,,0.68,,2013-09-29 09:43:00,
2013-09-29 04:53:00,45.0,42.0,29.83,WSW,250,4.0,5.0,88,0.00,,,0.68,,2013-09-29 09:53:00,
2013-09-29 05:12:00,45.0,42.0,29.82,WSW,240,2.0,4.0,88,0.00,,,0.68,,2013-09-29 10:12:00,
2013-09-29 05:23:00,44.0,41.0,29.82,WSW,253,1.0,3.0,89,0.00,,,0.53,,2013-09-29 10:23:00,
2013-09-29 05:43:00,45.0,42.0,29.82,SW,229,2.0,4.0,89,0.00,,,0.53,,2013-09-29 10:43:00,
2013-09-29 05:53:00,44.0,41.0,29.82,SW,226,3.0,5.0,89,0.00,,,0.53,,2013-09-29 10:53:00,
2013-09-29 06:12:00,44.0,41.0,29.82,WSW,242,1.0,3.0,89,0.00,,,0.53,,2013-09-29 11:12:00,
2013-09-29 06:22:00,43.0,40.0,29.82,WSW,239,1.0,3.0,90,0.00,,,0.45,,2013-09-29 11:22:00,
2013-09-29 06:52:00,43.0,41.0,29.82,SW,225,2.0,4.0,91,0.00,,,0.45,,2013-09-29 11:52:00,
2013-09-29 07:12:00,43.0,41.0,29.82,SW,215,2.0,5.0,91,0.00,,,0.45,,2013-09-29 12:12:00,
2013-09-29 07:21:00,43.0,41.0,29.82,SW,221,1.0,4.0,91,0.00,,,0.38,,2013-09-29 12:21:00,
2013-09-29 07:52:00,43.0,41.0,29.83,SSW,211,2.0,4.0,91,0.00,,,0.38,,2013-09-29 12:52:00,
2013-09-29 08:11:00,44.0,41.0,29.82,SSW,203,2.0,4.0,90,0.00,,,0.38,,2013-09-29 13:11:00,
2013-09-29 08:22:00,45.0,42.0,29.81,SE,134,1.0,5.0,89,0.00,,,0.23,,2013-09-29 13:22:00,
2013-09-29 08:53:00,47.0,43.0,29.81,SSE,165,4.0,8.0,87,0.00,,,0.23,,2013-09-29 13:53:00,
2013-09-29 09:12:00,48.0,44.0,29.80,South,188,3.0,7.0,85,0.00,,,0.23,,2013-09-29 14:12:00,
2013-09-29 09:21:00,49.0,44.0,29.80,South,174,4.0,7.0,83,0.00,,,0.16,,2013-09-29 14:21:00,
2013-09-29 09:43:00,51.0,45.0,29.80,South,188,3.0,9.0,81,0.00,,,0.16,,2013-09-29 14:43:00,
2013-09-29 09:52:00,53.0,46.0,29.80,South,173,5.0,8.0,77,0.00,,,0.16,,2013-09-29 14:52:00,
2013-09-29 10:12:00,55.0,47.0,29.79,SW,231,7.0,11.0,73,0.00,,,0.16,,2013-09-29 15:12:00,
2013-09-29 10:22:00,58.0,47.0,29.79,South,174,9.0,14.0,68,0.00,,,0.11,,2013-09-29 15:22:00,
2013-09-29 10:45:00,59.0,48.0,29.79,SSW,203,7.0,12.0,66,0.00,,,0.11,,2013-09-29 15:45:00,
2013-09-29 10:55:00,59.0,47.0,29.78,SSW,201,9.0,13.0,65,0.00,,,0.11,,2013-09-29 15:55:00,
2013-09-29 11:13:00,60.0,49.0,29.78,South,173,8.0,15.0,67,0.00,,,0.11,,2013-09-29 16:13:00,
2013-09-29 11:24:00,61.0,50.0,29.77,SW,218,8.0,14.0,66,0.00,,,0.11,,2013-09-29 16:24:00,
2013-09-29 11:44:00,62.0,49.0,29.77,SSE,165,8.0,14.0,62,0.00,,,0.11,,2013-09-29 16:44:00,
2013-09-29 11:54:00,63.0,48.0,29.76,SSW,202,10.0,15.0,59,0.00,,,0.11,,2013-09-29 16:54:00,
2013-09-29 12:12:00,64.0,49.0,29.76,South,176,8.0,14.0,59,0.00,,,0.11,,2013-09-29 17:12:00,
2013-09-29 12:24:00,65.0,49.0,29.75,SSE,153,8.0,13.0,56,0.00,,,0.09,,2013-09-29 17:24:00,
2013-09-29 12:43:00,66.0,50.0,29.75,SW,217,7.0,12.0,57,0.00,,,0.09,,2013-09-29 17:43:00,
2013-09-29 12:52:00,67.0,50.0,29.74,SSW,197,8.0,16.0,55,0.00,,,0.09,,2013-09-29 17:52:00,
2013-09-29 13:13:00,68.0,50.0,29.74,SSW,207,9.0,15.0,53,0.00,,,0.09,,2013-09-29 18:13:00,
2013-09-29 13:22:00,69.0,51.0,29.73,SSW,212,9.0,14.0,53,0.00,,,0.05,,2013-09-29 18:22:00,
2013-09-29 13:42:00,71.0,54.0,29.72,South,180,8.0,18.0,54,0.00,,,0.05,,2013-09-29 18:42:00,
2013-09-29 13:52:00,70.0,52.0,29.72,SSW,212,7.0,17.0,52,0.00,,,0.05,,2013-09-29 18:52:00,
2013-09-29 14:11:00,72.0,52.0,29.71,SSW,194,10.0,16.0,50,0.00,,,0.05,,2013-09-29 19:11:00,
2013-09-29 14:22:00,72.0,53.0,29.70,SW,232,7.0,13.0,52,0.00,,,0.01,,2013-09-29 19:22:00,
2013-09-29 14:52:00,74.0,52.0,29.69,SW,219,9.0,15.0,46,0.00,,,0.01,,2013-09-29 19:52:00,
2013-09-29 15:12:00,75.0,48.0,29.69,SSW,212,13.0,23.0,39,0.00,,,0.01,,2013-09-29 20:12:00,
2013-09-29 15:22:00,75.0,50.0,29.68,SW,224,11.0,18.0,41,0.00,,,0.00,,2013-09-29 20:22:00,
2013-09-29 15:42:00,76.0,51.0,29.67,SSW,199,10.0,16.0,42,0.00,,,0.00,,2013-09-29 20:42:00,
2013-09-29 15:52:00,76.0,50.0,29.66,SSW,197,9.0,18.0,40,0.00,,,0.00,,2013-09-29 20:52:00,
2013-09-29 16:11:00,75.0,47.0,29.66,SSW,212,13.0,20.0,37,0.00,,,0.00,,2013-09-29 21:11:00,
2013-09-29 16:21:00,76.0,49.0,29.66,SW,216,8.0,16.0,39,0.00,,,0.00,,2013-09-29 21:21:00,
2013-09-29 16:44:00,75.0,48.0,29.65,SW,222,10.0,19.0,39,0.00,,,0.00,,2013-09-29 21:44:00,
2013-09-29 16:55:00,75.0,48.0,29.65,SSW,204,11.0,18.0,38,0.00,,,0.00,,2013-09-29 21:55:00,
2013-09-29 17:14:00,74.0,49.0,29.65,South,174,7.0,14.0,41,0.00,,,0.00,,2013-09-29 22:14:00,
2013-09-29 17:24:00,74.0,49.0,29.65,SSE,167,7.0,12.0,42,0.00,,,0.00,,2013-09-29 22:24:00,
2013-09-29 17:53:00,73.0,52.0,29.64,South,172,5.0,11.0,47,0.00,,,0.00,,2013-09-29 22:53:00,
2013-09-29 18:12:00,73.0,52.0,29.64,SSW,193,4.0,8.0,47,0.00,,,0.00,,2013-09-29 23:12:00,
2013-09-29 18:23:00,72.0,53.0,29.64,SSE,160,4.0,8.0,51,0.00,,,0.00,,2013-09-29 23:23:00,
2013-09-29 18:43:00,70.0,53.0,29.64,SE,141,2.0,5.0,54,0.00,,,0.00,,2013-09-29 23:43:00,
2013-09-29 18:53:00,68.0,53.0,29.64,ESE,103,0.0,3.0,58,0.00,,,0.00,,2013-09-29 23:53:00,
2013-09-29 19:11:00,66.0,54.0,29.65,ESE,117,1.0,2.0,65,0.00,,,0.00,,2013-09-30 00:11:00,
2013-09-29 19:22:00,64.0,54.0,29.64,ESE,117,0.0,0.0,70,0.00,,,0.00,,2013-09-30 00:22:00,
2013-09-29 19:42:00,63.0,54.0,29.63,ESE,102,0.0,1.0,72,0.00,,,0.00,,2013-09-30 00:42:00,
2013-09-29 19:52:00,62.0,54.0,29.63,ESE,115,0.0,2.0,74,0.00,,,0.00,,2013-09-30 00:52:00,
2013-09-29 20:11:00,61.0,53.0,29.62,SE,126,0.0,2.0,75,0.00,,,0.00,,2013-09-30 01:11:00,
2013-09-29 20:22:00,61.0,53.0,29.62,ESE,115,0.0,4.0,74,0.00,,,0.00,,2013-09-30 01:22:00,
2013-09-29 20:42:00,60.0,52.0,29.62,SSE,151,0.0,3.0,74,0.00,,,0.00,,2013-09-30 01:42:00,
2013-09-29 20:52:00,60.0,52.0,29.62,SE,134,0.0,3.0,75,0.00,,,0.00,,2013-09-30 01:52:00,
2013-09-29 21:12:00,60.0,52.0,29.62,SE,145,1.0,4.0,76,0.00,,,0.00,,2013-09-30 02:12:00,
2013-09-29 21:22:00,59.0,52.0,29.62,SE,134,0.0,4.0,77,0.00,,,0.00,,2013-09-30 02:22:00,
2013-09-29 21:42:00,59.0,52.0,29.61,SE,145,1.0,5.0,77,0.00,,,0.00,,2013-09-30 02:42:00,
2013-09-29 21:52:00,59.0,52.0,29.61,SE,131,1.0,3.0,77,0.00,,,0.00,,2013-09-30 02:52:00,
2013-09-29 22:12:00,58.0,51.0,29.60,SE,130,1.0,4.0,77,0.00,,,0.00,,2013-09-30 03:12:00,
2013-09-29 22:22:00,58.0,51.0,29.59,SE,145,1.0,4.0,78,0.00,,,0.00,,2013-09-30 03:22:00,
2013-09-29 22:44:00,58.0,52.0,29.58,SE,128,1.0,6.0,79,0.00,,,0.00,,2013-09-30 03:44:00,
2013-09-29 22:55:00,59.0,51.0,29.58,SSE,165,4.0,9.0,75,0.00,,,0.00,,2013-09-30 03:55:00,
2013-09-29 23:14:00,59.0,51.0,29.57,South,187,4.0,8.0,74,0.00,,,0.00,,2013-09-30 04:14:00,
2013-09-29 23:25:00,59.0,50.0,29.57,SSE,149,3.0,6.0,73,0.00,,,0.00,,2013-09-30 04:25:00,
2013-09-29 23:44:00,59.0,50.0,29.56,South,184,2.0,5.0,73,0.00,,,0.00,,2013-09-30 04:44:00,
2013-09-29 23:53:00,61.0,50.0,29.56,South,188,6.0,10.0,68,0.00,,,0.00,,2013-09-30 04:53:00,